Login to view Products
 
Thursday, November 26, 2020 (04:05 UTC)
Sharjah International Airport
ICAO: OMSJ
IATA: SHJ
  • METAR OMSJ 260400Z 11009KT CAVOK 24/16 Q1019 NOSIG=
  • TAF OMSJ 252300Z 2600/2706 12009KT CAVOK PROB30 2610/2614 02012KT=
D:\Input Parser\Destinations\Final\23\OMSJL000623001400641244.txt
1